Time;durP1;ratioP1;P1;durP2;ratioP2;P2;SDS_P1;SDS_P2;PMS_P1;PMS_P2;Temp;Humidity;BMP_temperature;BMP_pressure;BME280_temperature;BME280_humidity;BME280_pressure;Samples;Min_cycle;Max_cycle;Signal;HPM_P1;HPM_P2
2023/03/13 00:01:19;;;;;;;4.63;4.30;;;;;;;3.47;48.25;95137.97;5135833;28;20187;-73
2023/03/13 00:03:47;;;;;;;4.82;4.32;;;;;;;3.18;49.23;95136.41;5117809;28;20219;-73
2023/03/13 00:06:14;;;;;;;5.00;4.60;;;;;;;2.97;49.94;95125.09;5117722;28;20268;-74
2023/03/13 00:08:41;;;;;;;4.97;4.57;;;;;;;2.94;50.71;95136.63;5135730;28;20194;-73
2023/03/13 00:11:10;;;;;;;4.75;4.32;;;;;;;2.86;50.74;95129.13;5117789;28;20290;-73
2023/03/13 00:13:36;;;;;;;5.05;4.63;;;;;;;2.81;51.68;95132.78;5117318;28;20198;-73
2023/03/13 00:16:05;;;;;;;5.13;4.72;;;;;;;2.83;50.86;95144.19;5118235;28;20190;-73
2023/03/13 00:18:31;;;;;;;4.40;4.05;;;;;;;2.83;50.57;95146.91;5120475;27;20198;-73
2023/03/13 00:21:00;;;;;;;4.47;4.18;;;;;;;2.84;51.35;95137.63;5121457;27;20201;-73
2023/03/13 00:23:28;;;;;;;4.10;3.80;;;;;;;2.87;48.81;95147.94;5121182;27;20584;-72
2023/03/13 00:25:58;;;;;;;4.22;3.85;;;;;;;2.96;48.57;95142.56;5121608;27;20191;-73
2023/03/13 00:28:25;;;;;;;4.20;3.90;;;;;;;3.02;47.51;95144.09;5139348;27;20191;-73
2023/03/13 00:30:51;;;;;;;4.00;3.70;;;;;;;3.05;47.25;95148.94;5120960;27;20199;-73
2023/03/13 00:33:18;;;;;;;4.43;4.13;;;;;;;3.07;47.36;95145.91;5139018;27;20184;-73
2023/03/13 00:35:45;;;;;;;4.22;3.92;;;;;;;3.09;46.88;95149.13;5120791;27;20203;-74
2023/03/13 00:38:13;;;;;;;4.88;4.25;;;;;;;3.08;46.90;95145.59;5120975;27;20195;-74
2023/03/13 00:40:40;;;;;;;4.50;4.20;;;;;;;3.07;46.78;95148.63;5121070;27;20190;-72
2023/03/13 00:43:07;;;;;;;4.47;4.18;;;;;;;3.04;47.18;95152.75;5120990;27;20223;-72
2023/03/13 00:45:34;;;;;;;4.70;4.30;;;;;;;2.98;47.00;95147.69;5139055;27;20215;-73
2023/03/13 00:48:01;;;;;;;4.63;4.25;;;;;;;2.95;46.58;95151.06;5138621;27;20235;-73
2023/03/13 00:50:27;;;;;;;4.30;4.00;;;;;;;2.87;46.75;95150.66;5139020;27;20202;-72
2023/03/13 00:52:54;;;;;;;4.35;4.05;;;;;;;2.86;47.28;95150.94;5139378;27;20179;-73
2023/03/13 00:55:22;;;;;;;4.22;3.92;;;;;;;2.84;47.52;95145.81;5138704;27;20179;-73
2023/03/13 00:57:49;;;;;;;3.60;3.40;;;;;;;2.81;46.79;95151.84;5120455;27;20198;-73
2023/03/13 01:00:17;;;;;;;3.90;3.60;;;;;;;2.80;48.03;95138.53;5120617;27;20191;-73
2023/03/13 01:02:43;;;;;;;4.40;4.00;;;;;;;2.82;47.81;95137.09;5120168;27;20199;-73
2023/03/13 01:05:12;;;;;;;3.85;3.55;;;;;;;2.82;47.30;95142.56;5120378;27;20203;-73
2023/03/13 01:07:38;;;;;;;4.10;3.80;;;;;;;2.77;47.27;95133.69;5138128;27;20652;-72
2023/03/13 01:10:06;;;;;;;4.05;3.75;;;;;;;2.76;48.02;95135.63;5120206;27;20198;-73
2023/03/13 01:12:35;;;;;;;4.50;4.20;;;;;;;2.69;49.72;95129.75;5120462;27;20191;-72
2023/03/13 01:15:02;;;;;;;4.60;4.20;;;;;;;2.56;50.46;95134.06;5119984;27;20209;-72
2023/03/13 01:17:29;;;;;;;4.50;4.20;;;;;;;2.52;50.20;95138.50;5119903;27;20202;-72
2023/03/13 01:19:56;;;;;;;4.28;3.97;;;;;;;2.42;51.84;95135.94;5120547;27;20199;-72
2023/03/13 01:22:23;;;;;;;4.30;4.00;;;;;;;2.22;51.92;95139.06;5120302;27;20210;-72
2023/03/13 01:24:51;;;;;;;4.68;4.38;;;;;;;2.07;52.10;95146.34;5120352;27;20222;-73
2023/03/13 01:27:18;;;;;;;4.80;4.40;;;;;;;1.98;52.33;95150.03;5119489;27;20293;-73
2023/03/13 01:29:46;;;;;;;4.65;4.30;;;;;;;1.83;52.45;95149.19;5137108;27;20175;-73
2023/03/13 01:32:13;;;;;;;4.30;4.00;;;;;;;1.85;52.68;95149.69;5120276;27;20191;-72
2023/03/13 01:34:40;;;;;;;4.65;4.15;;;;;;;1.91;52.75;95153.94;5119792;27;20206;-72
2023/03/13 01:37:07;;;;;;;4.88;4.47;;;;;;;1.98;52.67;95159.00;5120135;27;20633;-74
2023/03/13 01:39:33;;;;;;;4.90;4.53;;;;;;;2.02;53.43;95151.88;5119431;27;20198;-73
2023/03/13 01:42:00;;;;;;;4.85;4.45;;;;;;;2.02;53.41;95160.03;5138040;27;20176;-73
2023/03/13 01:44:27;;;;;;;4.72;4.30;;;;;;;2.00;53.81;95155.97;5137410;27;20673;-72
2023/03/13 01:46:56;;;;;;;4.85;4.45;;;;;;;1.96;53.54;95158.50;5119766;27;20193;-72
2023/03/13 01:49:24;;;;;;;4.80;4.50;;;;;;;1.89;53.69;95158.88;5119788;27;20602;-72
2023/03/13 01:51:54;;;;;;;4.70;4.40;;;;;;;1.78;54.14;95159.31;5119405;27;20195;-73
2023/03/13 01:54:23;;;;;;;5.00;4.60;;;;;;;1.65;54.66;95160.88;5137331;27;20191;-73
2023/03/13 01:56:53;;;;;;;5.13;4.70;;;;;;;1.62;55.06;95166.91;5119580;27;20219;-72
2023/03/13 01:59:22;;;;;;;5.13;4.72;;;;;;;1.62;54.62;95169.63;5119181;27;20187;-72
2023/03/13 02:01:51;;;;;;;5.10;4.60;;;;;;;1.58;54.55;95158.50;5119332;27;20278;-72
2023/03/13 02:04:20;;;;;;;5.05;4.60;;;;;;;1.50;54.69;95155.66;5119322;27;20282;-72
2023/03/13 02:06:50;;;;;;;5.15;4.68;;;;;;;1.42;54.22;95155.22;5137212;27;20179;-72
2023/03/13 02:09:20;;;;;;;4.85;4.47;;;;;;;1.40;54.97;95164.75;5137078;27;20197;-73
2023/03/13 02:11:49;;;;;;;5.07;4.65;;;;;;;1.42;55.23;95163.38;5119343;27;20187;-72
2023/03/13 02:14:17;;;;;;;5.13;4.70;;;;;;;1.42;55.11;95176.97;5119310;27;20198;-72
2023/03/13 02:16:47;;;;;;;4.97;4.60;;;;;;;1.50;55.27;95170.06;5137455;27;20187;-73
2023/03/13 02:19:20;;;;;;;5.10;4.57;;;;;;;1.51;54.37;95176.28;5118948;27;20634;-72
2023/03/13 02:21:50;;;;;;;5.15;4.75;;;;;;;1.56;54.80;95179.75;5137099;27;20191;-72
2023/03/13 02:24:22;;;;;;;5.05;4.65;;;;;;;1.57;54.00;95183.28;5119112;27;20211;-72
2023/03/13 02:26:50;;;;;;;5.85;5.13;;;;;;;1.64;54.08;95176.38;5119468;27;20199;-72
2023/03/13 02:29:18;;;;;;;5.45;5.05;;;;;;;1.67;54.21;95186.69;5118764;27;20187;-72
2023/03/13 02:31:46;;;;;;;5.32;4.93;;;;;;;1.67;54.52;95186.69;5136802;27;20192;-73
2023/03/13 02:34:15;;;;;;;5.50;5.00;;;;;;;1.66;54.56;95198.63;5118765;27;20191;-72
2023/03/13 02:36:43;;;;;;;5.72;5.22;;;;;;;1.53;54.88;95199.38;5119236;27;20635;-72
2023/03/13 02:39:09;;;;;;;5.55;5.15;;;;;;;1.47;55.49;95200.53;5136982;27;20187;-72
2023/03/13 02:41:36;;;;;;;5.93;5.43;;;;;;;1.37;55.84;95211.53;5118639;27;20194;-73
2023/03/13 02:44:05;;;;;;;6.05;5.13;;;;;;;1.27;55.66;95214.38;5118079;27;20227;-73
2023/03/13 02:46:44;;;;;;;5.70;5.07;;;;;;;1.29;56.59;95221.16;5136816;27;20282;-72
2023/03/13 02:49:20;;;;;;;5.63;5.13;;;;;;;1.33;56.03;95218.66;5118625;27;20203;-72
2023/03/13 02:51:47;;;;;;;5.47;4.97;;;;;;;1.31;56.06;95223.59;5118508;28;20203;-72
2023/03/13 02:54:18;;;;;;;5.93;5.32;;;;;;;1.25;56.78;95225.53;5118481;27;20198;-73
2023/03/13 02:56:47;;;;;;;6.30;5.53;;;;;;;1.26;56.29;95221.72;5136488;27;20191;-73
2023/03/13 02:59:16;;;;;;;5.45;4.95;;;;;;;1.21;56.25;95227.22;5118390;27;20229;-72
2023/03/13 03:01:43;;;;;;;6.47;5.90;;;;;;;1.13;56.37;95220.53;5136298;27;20201;-73
2023/03/13 03:04:10;;;;;;;6.32;5.72;;;;;;;1.08;56.94;95227.91;5118731;27;20199;-73
2023/03/13 03:06:36;;;;;;;6.72;6.03;;;;;;;1.07;58.06;95229.81;5118543;27;20202;-72
2023/03/13 03:09:03;;;;;;;6.78;6.15;;;;;;;1.02;57.56;95232.59;5136001;27;20542;-72
2023/03/13 03:11:30;;;;;;;6.57;5.93;;;;;;;1.01;57.23;95235.59;5118114;28;20210;-73
2023/03/13 03:13:57;;;;;;;5.95;5.45;;;;;;;1.03;57.97;95241.56;5118609;28;20199;-73
2023/03/13 03:16:25;;;;;;;6.40;5.80;;;;;;;1.10;57.69;95240.13;5117890;28;20194;-73
2023/03/13 03:18:52;;;;;;;6.82;6.13;;;;;;;1.09;56.82;95246.66;5118127;28;20202;-73
2023/03/13 03:21:20;;;;;;;7.05;6.07;;;;;;;1.09;57.04;95259.41;5135948;28;20201;-73
2023/03/13 03:23:47;;;;;;;6.35;5.80;;;;;;;1.13;57.17;95272.16;5118133;28;20191;-73
2023/03/13 03:26:13;;;;;;;30.60;21.13;;;;;;;1.13;56.40;95271.34;5118391;28;20207;-72
2023/03/13 03:28:40;;;;;;;44.55;29.73;;;;;;;1.03;57.12;95271.44;5118843;28;20215;-73
2023/03/13 03:31:08;;;;;;;54.00;34.28;;;;;;;0.94;57.48;95263.94;5135852;28;20175;-73
2023/03/13 03:33:36;;;;;;;48.45;29.10;;;;;;;0.87;57.80;95268.88;5117607;28;20618;-73
2023/03/13 03:36:06;;;;;;;37.95;25.45;;;;;;;0.91;57.11;95266.41;5136040;28;20193;-72
2023/03/13 03:38:33;;;;;;;24.30;17.60;;;;;;;0.99;57.38;95267.69;5118247;28;20206;-72
2023/03/13 03:41:00;;;;;;;25.80;18.63;;;;;;;0.98;58.02;95276.91;5117795;28;20187;-72
2023/03/13 03:43:27;;;;;;;25.13;19.77;;;;;;;0.89;57.19;95293.84;5114531;28;20564;-72
2023/03/13 03:45:53;;;;;;;23.13;17.85;;;;;;;0.87;57.57;95303.34;5115885;28;20214;-73
2023/03/13 03:48:20;;;;;;;16.75;14.05;;;;;;;0.78;58.22;95305.09;5114610;28;20203;-73
2023/03/13 03:50:48;;;;;;;17.23;13.07;;;;;;;0.71;58.02;95306.22;5114782;28;20203;-73
2023/03/13 03:53:15;;;;;;;15.93;13.98;;;;;;;0.69;58.55;95310.28;5117847;28;20260;-72
2023/03/13 03:55:42;;;;;;;16.27;14.30;;;;;;;0.59;58.54;95299.53;5118071;28;20199;-73
2023/03/13 03:58:09;;;;;;;16.00;13.52;;;;;;;0.42;58.61;95308.09;5118484;28;20199;-73
2023/03/13 04:00:35;;;;;;;18.42;15.07;;;;;;;0.37;59.42;95313.56;5118471;28;20195;-73
2023/03/13 04:03:02;;;;;;;14.95;13.00;;;;;;;0.30;58.87;95307.63;5118364;28;20199;-73
2023/03/13 04:05:29;;;;;;;17.45;12.68;;;;;;;0.15;59.27;95308.56;5117857;28;20219;-73
2023/03/13 04:07:57;;;;;;;14.68;13.00;;;;;;;0.23;59.97;95318.81;5119109;28;20199;-73
2023/03/13 04:10:24;;;;;;;13.45;10.20;;;;;;;0.34;59.21;95325.78;5118298;28;20203;-73
2023/03/13 04:12:51;;;;;;;13.05;11.07;;;;;;;0.46;58.66;95322.69;5118006;28;20195;-73
2023/03/13 04:15:17;;;;;;;9.52;8.40;;;;;;;0.43;58.14;95332.22;5118253;28;20273;-73
2023/03/13 04:17:44;;;;;;;12.27;10.20;;;;;;;0.50;59.04;95331.91;5118953;28;20187;-73
2023/03/13 04:20:12;;;;;;;10.07;8.52;;;;;;;0.59;58.62;95337.56;5118329;28;20207;-72
2023/03/13 04:22:39;;;;;;;6.80;6.20;;;;;;;0.64;58.31;95342.94;5118584;28;20257;-72
2023/03/13 04:25:08;;;;;;;9.38;8.38;;;;;;;0.60;58.15;95344.59;5118641;28;20218;-72
2023/03/13 04:27:35;;;;;;;9.85;8.30;;;;;;;0.54;58.46;95343.81;5117360;28;20204;-71
2023/03/13 04:30:01;;;;;;;9.35;8.20;;;;;;;0.51;58.56;95349.81;5117941;28;20195;-72
2023/03/13 04:32:28;;;;;;;8.10;7.15;;;;;;;0.43;58.95;95353.13;5118092;28;20199;-72
2023/03/13 04:34:55;;;;;;;12.07;9.88;;;;;;;0.34;59.33;95362.97;5117861;28;20196;-72
2023/03/13 04:37:22;;;;;;;11.07;9.95;;;;;;;0.31;58.82;95371.66;5117700;28;20567;-72
2023/03/13 04:39:48;;;;;;;10.55;9.45;;;;;;;0.32;59.05;95371.34;5117812;28;20188;-72
2023/03/13 04:42:16;;;;;;;14.48;10.85;;;;;;;0.19;59.34;95386.38;5118975;27;20196;-72
2023/03/13 04:44:43;;;;;;;16.08;10.90;;;;;;;0.15;60.05;95385.31;5120598;27;20538;-72
2023/03/13 04:47:10;;;;;;;18.58;11.60;;;;;;;0.16;59.77;95384.22;5139093;27;20187;-72
2023/03/13 04:49:37;;;;;;;13.00;11.60;;;;;;;0.19;59.76;95391.00;5120755;27;20198;-73
2023/03/13 04:52:04;;;;;;;13.80;11.52;;;;;;;0.11;59.57;95386.13;5121124;27;20209;-72
2023/03/13 04:54:31;;;;;;;13.88;10.55;;;;;;;0.11;59.70;95386.97;5120506;27;20195;-71
2023/03/13 04:56:57;;;;;;;12.95;11.40;;;;;;;0.20;59.56;95389.88;5121000;27;20189;-72
2023/03/13 04:59:26;;;;;;;12.90;11.50;;;;;;;0.26;59.35;95396.13;5120664;27;20194;-72
2023/03/13 05:01:53;;;;;;;14.43;12.43;;;;;;;0.28;59.86;95388.50;5138410;27;20595;-72
2023/03/13 05:04:20;;;;;;;12.02;10.45;;;;;;;0.28;59.88;95392.00;5119103;27;20275;-72
2023/03/13 05:06:46;;;;;;;11.18;10.13;;;;;;;0.36;59.66;95388.69;5138823;27;20199;-75
2023/03/13 05:09:13;;;;;;;13.80;12.02;;;;;;;0.47;59.58;95384.03;5138428;27;20194;-74
2023/03/13 05:11:41;;;;;;;13.90;12.50;;;;;;;0.51;59.71;95389.69;5138161;27;20191;-72
2023/03/13 05:14:10;;;;;;;15.50;12.90;;;;;;;0.58;59.10;95395.63;5120546;27;20195;-72
2023/03/13 05:16:38;;;;;;;13.52;12.15;;;;;;;0.57;59.04;95407.59;5138605;27;20289;-72
2023/03/13 05:19:05;;;;;;;14.82;13.07;;;;;;;0.45;59.71;95405.22;5120084;27;20183;-72
2023/03/13 05:21:32;;;;;;;13.55;12.18;;;;;;;0.45;60.02;95406.03;5119921;27;20210;-72
2023/03/13 05:23:58;;;;;;;14.35;11.25;;;;;;;0.45;59.98;95414.16;5120194;27;20203;-72
2023/03/13 05:26:25;;;;;;;15.77;12.65;;;;;;;0.45;59.77;95410.66;5137285;27;20514;-72
2023/03/13 05:28:52;;;;;;;15.23;13.23;;;;;;;0.45;59.60;95416.06;5137893;27;20547;-72
2023/03/13 05:31:19;;;;;;;15.43;13.88;;;;;;;0.50;59.44;95410.59;5138194;27;20653;-72
2023/03/13 05:33:47;;;;;;;15.52;13.98;;;;;;;0.61;59.45;95409.44;5120042;27;20198;-72
2023/03/13 05:36:13;;;;;;;20.20;18.25;;;;;;;0.61;59.61;95422.22;5119913;27;20203;-72
2023/03/13 05:38:40;;;;;;;19.08;17.23;;;;;;;0.64;59.80;95424.38;5119770;27;20187;-72
2023/03/13 05:41:07;;;;;;;20.38;18.40;;;;;;;0.76;59.67;95429.44;5119564;27;20187;-72
2023/03/13 05:43:34;;;;;;;19.98;17.73;;;;;;;0.76;59.59;95427.53;5115833;28;20573;-72
2023/03/13 05:46:00;;;;;;;19.17;17.33;;;;;;;0.80;59.75;95427.78;5116767;28;20216;-72
2023/03/13 05:48:27;;;;;;;21.58;19.38;;;;;;;0.92;59.56;95433.69;5116550;28;20492;-72
2023/03/13 05:50:55;;;;;;;24.58;22.15;;;;;;;1.01;58.75;95433.88;5117205;28;20200;-72
2023/03/13 05:53:22;;;;;;;22.08;20.08;;;;;;;1.07;58.49;95439.00;5115922;28;20207;-72
2023/03/13 05:55:49;;;;;;;27.00;24.33;;;;;;;1.09;58.79;95430.56;5116720;28;20529;-72
2023/03/13 05:58:16;;;;;;;25.17;22.77;;;;;;;1.11;57.70;95436.53;5117036;28;20188;-72
2023/03/13 06:00:43;;;;;;;26.38;23.92;;;;;;;1.14;58.30;95444.91;5116956;27;20180;-73
2023/03/13 06:03:09;;;;;;;30.20;27.13;;;;;;;1.18;58.14;95445.97;5116103;28;20211;-72
2023/03/13 06:05:36;;;;;;;27.17;24.25;;;;;;;1.25;58.62;95444.84;5115505;28;20219;-72
2023/03/13 06:08:06;;;;;;;26.52;23.90;;;;;;;1.31;57.72;95446.44;5115659;28;20188;-73
2023/03/13 06:10:33;;;;;;;27.65;24.95;;;;;;;1.35;57.42;95450.19;5115818;28;20626;-73
2023/03/13 06:12:59;;;;;;;25.00;22.60;;;;;;;1.36;57.83;95441.75;5116111;28;20188;-73
2023/03/13 06:15:26;;;;;;;24.90;22.33;;;;;;;1.40;57.85;95440.06;5115222;28;20210;-73
2023/03/13 06:17:53;;;;;;;24.33;21.98;;;;;;;1.47;57.11;95447.91;5115429;28;20191;-73
2023/03/13 06:20:21;;;;;;;24.02;21.67;;;;;;;1.54;57.30;95453.00;5115716;28;20195;-74
2023/03/13 06:22:47;;;;;;;24.08;21.75;;;;;;;1.61;57.55;95442.59;5116204;28;20241;-72
2023/03/13 06:25:16;;;;;;;32.42;29.50;;;;;;;1.63;57.75;95443.94;5115153;28;20196;-72
2023/03/13 06:27:42;;;;;;;32.75;29.52;;;;;;;1.71;57.22;95444.41;5116351;28;20214;-72
2023/03/13 06:30:10;;;;;;;28.70;25.77;;;;;;;1.73;56.95;95437.59;5115288;28;20187;-72
2023/03/13 06:32:37;;;;;;;21.63;19.63;;;;;;;1.83;56.30;95433.94;5115392;28;20196;-72
2023/03/13 06:35:05;;;;;;;18.77;17.02;;;;;;;1.93;55.60;95429.22;5115623;28;20200;-71
2023/03/13 06:37:32;;;;;;;18.67;17.00;;;;;;;1.99;55.32;95413.63;5115034;28;20265;-71
2023/03/13 06:39:59;;;;;;;18.50;16.70;;;;;;;2.09;54.86;95424.41;5116231;28;20227;-71
2023/03/13 06:42:27;;;;;;;15.95;14.50;;;;;;;2.17;53.78;95437.34;5117740;27;20225;-71
2023/03/13 06:44:54;;;;;;;17.08;15.38;;;;;;;2.24;54.27;95433.47;5118449;27;20202;-72
2023/03/13 06:47:20;;;;;;;16.85;15.43;;;;;;;2.28;53.81;95435.31;5118621;27;20230;-72
2023/03/13 06:49:47;;;;;;;15.70;14.40;;;;;;;2.34;53.44;95434.16;5118055;27;20195;-71
2023/03/13 06:52:14;;;;;;;17.35;15.73;;;;;;;2.41;53.52;95431.09;5118416;27;20205;-71
2023/03/13 06:54:41;;;;;;;15.02;13.63;;;;;;;2.49;53.59;95427.69;5117997;27;20210;-71
2023/03/13 06:57:07;;;;;;;12.60;11.50;;;;;;;2.51;52.77;95427.44;5118193;27;20195;-71
2023/03/13 06:59:35;;;;;;;10.38;9.57;;;;;;;2.60;53.14;95423.72;5118384;28;20195;-71
2023/03/13 07:02:03;;;;;;;8.90;8.10;;;;;;;2.66;52.47;95427.22;5118848;27;20207;-71
2023/03/13 07:04:29;;;;;;;8.27;7.47;;;;;;;2.71;52.85;95427.13;5136399;27;20190;-71
2023/03/13 07:06:56;;;;;;;8.65;7.85;;;;;;;2.74;51.66;95423.00;5118113;28;20218;-71
2023/03/13 07:09:23;;;;;;;10.95;10.05;;;;;;;2.68;51.12;95427.72;5117972;27;20264;-72
2023/03/13 07:11:50;;;;;;;7.40;6.70;;;;;;;2.79;52.12;95426.44;5118273;27;20195;-71
2023/03/13 07:14:16;;;;;;;6.95;6.45;;;;;;;2.92;51.53;95435.81;5118432;28;20198;-71
2023/03/13 07:16:45;;;;;;;6.70;6.20;;;;;;;3.01;51.15;95425.03;5136305;27;20178;-71
2023/03/13 07:19:11;;;;;;;6.55;6.05;;;;;;;3.09;51.75;95422.47;5135917;28;20648;-71
2023/03/13 07:21:38;;;;;;;7.25;6.75;;;;;;;3.22;51.38;95422.81;5135836;28;20183;-71
2023/03/13 07:24:06;;;;;;;9.45;8.63;;;;;;;3.31;50.91;95426.50;5118165;28;20195;-71
2023/03/13 07:26:32;;;;;;;8.55;7.60;;;;;;;3.34;50.90;95421.25;5117656;28;20219;-71
2023/03/13 07:28:59;;;;;;;8.68;7.90;;;;;;;3.53;51.15;95417.66;5121854;27;20615;-71
2023/03/13 07:31:26;;;;;;;8.32;7.55;;;;;;;3.60;50.58;95421.63;5140111;27;20205;-71
2023/03/13 07:33:55;;;;;;;8.75;8.05;;;;;;;3.70;50.03;95417.88;5122395;27;20568;-72
2023/03/13 07:36:23;;;;;;;9.40;8.60;;;;;;;3.80;49.71;95414.16;5140091;27;20623;-72
2023/03/13 07:38:49;;;;;;;8.90;8.20;;;;;;;3.79;49.28;95415.28;5122275;27;20194;-72
2023/03/13 07:41:17;;;;;;;9.50;8.73;;;;;;;3.84;49.89;95424.16;5140002;27;20202;-72
2023/03/13 07:43:44;;;;;;;9.13;8.40;;;;;;;3.89;49.17;95428.75;5139860;27;20238;-71
2023/03/13 07:46:12;;;;;;;9.40;8.70;;;;;;;3.98;49.63;95421.47;5140583;27;20218;-71
2023/03/13 07:48:40;;;;;;;7.97;7.22;;;;;;;4.08;48.73;95424.00;5122050;27;20186;-72
2023/03/13 07:51:12;;;;;;;8.80;8.10;;;;;;;4.12;48.59;95423.41;5140147;27;20187;-72
2023/03/13 07:53:38;;;;;;;8.80;8.10;;;;;;;4.16;48.60;95414.28;5121608;27;20199;-72
2023/03/13 07:56:07;;;;;;;9.50;8.63;;;;;;;4.19;47.49;95410.16;5121922;27;20578;-72
2023/03/13 07:58:35;;;;;;;8.25;7.60;;;;;;;4.34;49.42;95407.91;5121814;27;20203;-72
2023/03/13 08:01:08;;;;;;;9.18;8.43;;;;;;;4.68;50.78;95403.91;5139548;27;20199;-72
2023/03/13 08:03:35;;;;;;;8.00;7.30;;;;;;;4.94;49.96;95408.78;5121376;27;20191;-72
2023/03/13 08:06:04;;;;;;;8.00;7.40;;;;;;;5.01;48.05;95395.50;5139769;27;20211;-71
2023/03/13 08:08:32;;;;;;;10.65;9.75;;;;;;;4.97;48.38;95399.97;5139688;27;20498;-71
2023/03/13 08:11:02;;;;;;;11.02;10.10;;;;;;;4.87;48.17;95400.22;5140402;27;20228;-71
2023/03/13 08:13:29;;;;;;;11.07;10.10;;;;;;;4.89;49.74;95401.53;5122434;27;20191;-71
2023/03/13 08:16:03;;;;;;;11.50;10.50;;;;;;;4.94;48.94;95397.84;5122483;27;20199;-72
2023/03/13 08:18:33;;;;;;;11.65;10.65;;;;;;;4.99;49.61;95404.03;5140548;27;20191;-72
2023/03/13 08:21:02;;;;;;;11.10;10.10;;;;;;;5.10;48.81;95403.78;5140398;27;20187;-71
2023/03/13 08:23:29;;;;;;;11.57;10.57;;;;;;;5.18;48.55;95406.56;5122340;27;20190;-71
2023/03/13 08:26:01;;;;;;;12.70;11.63;;;;;;;5.26;48.90;95408.56;5122665;27;20187;-71
2023/03/13 08:28:28;;;;;;;13.25;12.15;;;;;;;5.38;48.64;95407.22;5122533;27;20199;-71
2023/03/13 08:30:55;;;;;;;10.82;9.93;;;;;;;5.43;49.10;95410.63;5121694;27;20622;-71
2023/03/13 08:33:22;;;;;;;9.98;9.07;;;;;;;5.47;49.83;95410.81;5140544;27;20187;-71
2023/03/13 08:35:48;;;;;;;9.35;8.55;;;;;;;5.50;48.45;95415.66;5122452;27;20282;-72
2023/03/13 08:38:15;;;;;;;8.10;7.40;;;;;;;5.65;49.72;95412.53;5121755;27;20226;-72
2023/03/13 08:40:42;;;;;;;7.90;7.10;;;;;;;5.66;49.98;95405.91;5140216;27;20614;-72
2023/03/13 08:43:10;;;;;;;8.73;7.88;;;;;;;5.73;48.37;95409.00;5121766;27;20681;-72
2023/03/13 08:45:37;;;;;;;8.45;7.75;;;;;;;5.69;47.91;95401.75;5122338;27;20209;-72
2023/03/13 08:48:04;;;;;;;8.60;7.75;;;;;;;5.77;47.90;95407.28;5121752;27;20644;-72
2023/03/13 08:50:31;;;;;;;8.68;8.05;;;;;;;5.82;49.74;95411.00;5121512;27;20198;-72
2023/03/13 08:52:57;;;;;;;9.60;8.85;;;;;;;5.93;49.88;95402.25;5122348;27;20191;-72
2023/03/13 08:55:24;;;;;;;9.65;8.85;;;;;;;6.05;48.68;95400.84;5122316;27;20510;-72
2023/03/13 08:57:51;;;;;;;9.82;9.00;;;;;;;6.22;48.91;95398.97;5122252;27;20202;-72
2023/03/13 09:00:20;;;;;;;9.40;8.65;;;;;;;6.43;48.25;95403.88;5122040;27;20183;-72
2023/03/13 09:02:47;;;;;;;10.13;9.32;;;;;;;6.49;48.62;95399.84;5140045;27;20187;-72
2023/03/13 09:05:14;;;;;;;10.05;9.18;;;;;;;6.58;48.79;95397.94;5121468;27;20209;-72
2023/03/13 09:07:41;;;;;;;10.40;9.45;;;;;;;6.68;46.82;95394.91;5138904;27;20562;-72
2023/03/13 09:10:09;;;;;;;10.30;9.48;;;;;;;6.79;48.43;95398.16;5121947;27;20202;-72
2023/03/13 09:12:35;;;;;;;10.05;9.15;;;;;;;6.86;48.10;95397.66;5121373;27;20195;-72
2023/03/13 09:15:02;;;;;;;10.90;9.95;;;;;;;6.99;48.88;95392.03;5138958;27;20199;-72
2023/03/13 09:17:30;;;;;;;10.82;9.93;;;;;;;7.11;46.88;95388.63;5122274;27;20199;-72
2023/03/13 09:19:57;;;;;;;10.77;9.75;;;;;;;7.27;46.88;95390.91;5140090;27;20247;-72
2023/03/13 09:22:24;;;;;;;10.75;9.85;;;;;;;7.38;45.77;95390.25;5139867;27;20195;-72
2023/03/13 09:24:50;;;;;;;10.57;9.77;;;;;;;7.36;45.46;95391.69;5139662;27;20209;-71
2023/03/13 09:27:17;;;;;;;11.02;10.13;;;;;;;7.46;45.59;95394.91;5139386;27;20203;-71
2023/03/13 09:29:44;;;;;;;11.30;10.23;;;;;;;7.62;44.98;95392.44;5121631;27;20191;-71
2023/03/13 09:32:11;;;;;;;10.38;9.40;;;;;;;7.79;44.58;95391.63;5122076;27;20191;-71
2023/03/13 09:34:39;;;;;;;9.15;8.40;;;;;;;7.95;45.40;95389.13;5122032;27;20209;-72
2023/03/13 09:37:06;;;;;;;9.95;9.15;;;;;;;7.81;45.31;95380.31;5121840;27;20199;-72
2023/03/13 09:39:32;;;;;;;9.57;8.75;;;;;;;7.86;46.52;95378.19;5121000;27;20195;-72
2023/03/13 09:42:04;;;;;;;10.10;9.23;;;;;;;8.05;45.15;95380.53;5120220;27;20191;-71
2023/03/13 09:44:33;;;;;;;9.77;9.02;;;;;;;8.32;44.25;95373.81;5116912;28;20235;-72
2023/03/13 09:47:03;;;;;;;10.07;9.27;;;;;;;8.31;44.53;95365.88;5117367;28;20219;-72
2023/03/13 09:49:32;;;;;;;9.18;8.48;;;;;;;8.11;44.15;95368.25;5116279;28;20515;-71
2023/03/13 09:52:05;;;;;;;9.20;8.48;;;;;;;8.04;44.32;95367.16;5117049;28;20203;-71
2023/03/13 09:54:36;;;;;;;9.48;8.77;;;;;;;8.07;43.25;95372.78;5118087;28;20192;-71
2023/03/13 09:57:06;;;;;;;9.38;8.68;;;;;;;8.25;44.04;95372.72;5117560;28;20203;-71
2023/03/13 09:59:45;;;;;;;10.02;9.32;;;;;;;8.43;43.91;95366.81;5117215;28;20194;-72
2023/03/13 10:02:22;;;;;;;8.73;8.00;;;;;;;8.65;42.12;95370.41;5117441;28;20279;-72
2023/03/13 10:04:52;;;;;;;8.77;8.18;;;;;;;8.73;42.98;95364.06;5116846;28;20195;-71
2023/03/13 10:07:20;;;;;;;8.88;8.18;;;;;;;8.65;42.35;95362.16;5115924;28;20215;-71
2023/03/13 10:09:47;;;;;;;8.80;8.05;;;;;;;8.71;42.96;95362.75;5116036;28;20249;-71
2023/03/13 10:12:17;;;;;;;8.40;7.80;;;;;;;9.04;44.85;95352.66;5116252;28;20550;-71
2023/03/13 10:14:52;;;;;;;10.35;9.35;;;;;;;9.23;42.25;95352.19;5116966;28;20195;-72
2023/03/13 10:17:26;;;;;;;10.70;9.80;;;;;;;9.23;42.35;95341.16;5116993;28;20180;-71
2023/03/13 10:19:57;;;;;;;10.48;9.50;;;;;;;9.23;42.51;95330.16;5099311;28;20245;-71
2023/03/13 10:22:28;;;;;;;9.88;9.02;;;;;;;9.53;42.69;95330.84;5099789;28;20227;-71
2023/03/13 10:24:58;;;;;;;11.32;10.43;;;;;;;9.44;41.31;95332.06;5117665;28;20191;-71
2023/03/13 10:27:25;;;;;;;10.82;9.85;;;;;;;9.55;40.57;95327.72;5098691;28;20219;-72
2023/03/13 10:29:52;;;;;;;10.48;9.57;;;;;;;9.84;41.64;95326.75;5098701;28;20219;-71
2023/03/13 10:32:19;;;;;;;10.48;9.50;;;;;;;10.10;42.98;95321.75;5099124;28;20207;-71
2023/03/13 10:34:51;;;;;;;10.43;9.63;;;;;;;10.25;40.53;95313.94;5098619;28;20303;-71
2023/03/13 10:37:21;;;;;;;10.38;9.48;;;;;;;10.59;41.53;95298.91;5098998;28;20196;-71
2023/03/13 10:39:49;;;;;;;10.88;9.95;;;;;;;10.81;39.75;95301.13;5116285;28;20218;-71
2023/03/13 10:42:21;;;;;;;11.38;10.48;;;;;;;10.82;41.08;95288.97;5098634;28;20196;-71
2023/03/13 10:44:48;;;;;;;11.43;10.52;;;;;;;10.91;39.22;95277.78;5098820;28;20528;-71
2023/03/13 10:47:15;;;;;;;11.60;10.60;;;;;;;11.09;41.49;95289.34;5098920;28;20226;-71
2023/03/13 10:49:48;;;;;;;10.32;9.52;;;;;;;11.51;41.09;95291.66;5098450;28;20196;-71
2023/03/13 10:52:30;;;;;;;11.25;10.45;;;;;;;11.71;38.55;95292.59;5098801;28;20639;-71
2023/03/13 10:55:01;;;;;;;11.40;10.40;;;;;;;11.79;38.30;95284.13;5098507;28;20184;-71
2023/03/13 10:57:29;;;;;;;10.93;10.02;;;;;;;11.77;37.82;95288.44;5116126;28;20252;-71
2023/03/13 10:59:57;;;;;;;13.35;12.25;;;;;;;11.63;37.40;95282.53;5098603;28;20206;-71
2023/03/13 11:02:27;;;;;;;13.20;12.10;;;;;;;11.44;37.93;95270.22;5098779;28;20206;-71
2023/03/13 11:04:54;;;;;;;13.52;12.40;;;;;;;11.15;38.95;95265.03;5098753;28;20647;-71
2023/03/13 11:07:25;;;;;;;12.60;11.50;;;;;;;11.18;40.21;95272.63;5098427;28;20217;-71
2023/03/13 11:10:01;;;;;;;12.68;11.48;;;;;;;11.38;38.33;95259.78;5098238;28;20199;-71
2023/03/13 11:12:28;;;;;;;13.07;11.93;;;;;;;11.55;37.71;95251.97;5098443;28;20202;-71
2023/03/13 11:14:58;;;;;;;12.93;11.93;;;;;;;11.43;39.22;95256.72;5098462;28;20191;-72
2023/03/13 11:17:31;;;;;;;13.32;12.18;;;;;;;11.59;40.63;95254.00;5097806;28;20191;-71
2023/03/13 11:20:07;;;;;;;13.52;12.43;;;;;;;11.38;38.51;95255.03;5097598;28;20630;-71
2023/03/13 11:22:44;;;;;;;12.77;11.73;;;;;;;11.15;36.41;95249.28;5116439;28;20191;-71
2023/03/13 11:25:23;;;;;;;13.65;12.35;;;;;;;11.43;36.78;95243.72;5115778;28;20522;-71
2023/03/13 11:28:13;;;;;;;13.43;12.32;;;;;;;11.61;38.13;95244.19;5115360;28;20639;-71
2023/03/13 11:30:50;;;;;;;12.68;11.75;;;;;;;12.00;36.94;95236.13;5085171;28;20203;-71
2023/03/13 11:33:27;;;;;;;13.88;12.52;;;;;;;12.04;36.02;95231.47;5115918;28;20206;-71
2023/03/13 11:36:00;;;;;;;12.25;11.35;;;;;;;11.65;37.74;95228.50;5098008;28;20625;-71
2023/03/13 11:38:29;;;;;;;11.90;10.65;;;;;;;11.87;37.38;95212.50;5097753;28;20206;-71